sensor_id;sensor_type;location;lat;lon;timestamp;temperature;humidity
57030;DHT22;42920;45.306;20.448;2022-10-30T00:00:56;282.50;2278.40
57030;DHT22;42920;45.306;20.448;2022-10-30T00:03:21;282.50;2278.40
57030;DHT22;42920;45.306;20.448;2022-10-30T00:05:49;282.50;2278.40
57030;DHT22;42920;45.306;20.448;2022-10-30T00:08:18;282.40;2278.40
57030;DHT22;42920;45.306;20.448;2022-10-30T00:10:44;282.30;2278.40
57030;DHT22;42920;45.306;20.448;2022-10-30T00:13:12;282.30;2278.40
57030;DHT22;42920;45.306;20.448;2022-10-30T00:15:38;282.20;2278.40
57030;DHT22;42920;45.306;20.448;2022-10-30T00:18:04;282.10;2278.40
57030;DHT22;42920;45.306;20.448;2022-10-30T00:20:30;282.10;2278.40
57030;DHT22;42920;45.306;20.448;2022-10-30T00:22:56;282.10;2278.40
57030;DHT22;42920;45.306;20.448;2022-10-30T00:25:22;282.10;2278.40
57030;DHT22;42920;45.306;20.448;2022-10-30T00:27:47;282.20;2278.40
57030;DHT22;42920;45.306;20.448;2022-10-30T00:30:13;282.20;2278.40
57030;DHT22;42920;45.306;20.448;2022-10-30T00:32:40;282.20;2278.40
57030;DHT22;42920;45.306;20.448;2022-10-30T00:35:08;282.30;2278.40
57030;DHT22;42920;45.306;20.448;2022-10-30T00:37:34;282.30;2278.40
57030;DHT22;42920;45.306;20.448;2022-10-30T00:39:59;282.20;2278.40
57030;DHT22;42920;45.306;20.448;2022-10-30T00:42:28;282.20;2278.40
57030;DHT22;42920;45.306;20.448;2022-10-30T00:44:55;282.20;2278.40
57030;DHT22;42920;45.306;20.448;2022-10-30T00:47:42;282.40;2278.40
57030;DHT22;42920;45.306;20.448;2022-10-30T00:50:16;282.50;2278.40
57030;DHT22;42920;45.306;20.448;2022-10-30T00:53:08;282.20;2278.40
57030;DHT22;42920;45.306;20.448;2022-10-30T00:55:43;282.10;2278.40
57030;DHT22;42920;45.306;20.448;2022-10-30T00:58:13;282.10;2278.40
57030;DHT22;42920;45.306;20.448;2022-10-30T01:00:42;282.20;2278.40
57030;DHT22;42920;45.306;20.448;2022-10-30T01:03:11;282.30;2278.40
57030;DHT22;42920;45.306;20.448;2022-10-30T01:05:37;282.40;2278.40
57030;DHT22;42920;45.306;20.448;2022-10-30T01:08:04;282.40;2278.40
57030;DHT22;42920;45.306;20.448;2022-10-30T01:10:29;282.50;2278.40
57030;DHT22;42920;45.306;20.448;2022-10-30T01:12:56;307.20;2304.00
57030;DHT22;42920;45.306;20.448;2022-10-30T01:15:27;307.30;2304.00
57030;DHT22;42920;45.306;20.448;2022-10-30T01:23:55;282.50;2099.20
57030;DHT22;42920;45.306;20.448;2022-10-30T01:26:33;282.40;1945.60
57030;DHT22;42920;45.306;20.448;2022-10-30T01:37:00;282.40;2278.40
57030;DHT22;42920;45.306;20.448;2022-10-30T01:39:29;282.30;2278.40
57030;DHT22;42920;45.306;20.448;2022-10-30T01:41:57;282.30;1945.60
57030;DHT22;42920;45.306;20.448;2022-10-30T01:44:27;282.30;2278.40
57030;DHT22;42920;45.306;20.448;2022-10-30T01:47:59;282.30;2278.40
57030;DHT22;42920;45.306;20.448;2022-10-30T01:50:28;282.30;2278.40
57030;DHT22;42920;45.306;20.448;2022-10-30T01:53:07;282.40;2278.40
57030;DHT22;42920;45.306;20.448;2022-10-30T01:58:21;282.40;2278.40
57030;DHT22;42920;45.306;20.448;2022-10-30T02:00:58;282.30;2278.40
57030;DHT22;42920;45.306;20.448;2022-10-30T02:03:26;282.30;2278.40
57030;DHT22;42920;45.306;20.448;2022-10-30T02:05:52;282.40;2278.40
57030;DHT22;42920;45.306;20.448;2022-10-30T02:08:20;282.30;2099.20
57030;DHT22;42920;45.306;20.448;2022-10-30T02:10:47;282.30;2278.40
57030;DHT22;42920;45.306;20.448;2022-10-30T02:13:14;282.30;2278.40
57030;DHT22;42920;45.306;20.448;2022-10-30T02:15:41;282.20;2278.40
57030;DHT22;42920;45.306;20.448;2022-10-30T02:18:07;282.20;2278.40
57030;DHT22;42920;45.306;20.448;2022-10-30T02:20:33;282.10;2278.40
57030;DHT22;42920;45.306;20.448;2022-10-30T02:22:59;282.10;2278.40
57030;DHT22;42920;45.306;20.448;2022-10-30T02:25:25;282.10;2278.40
57030;DHT22;42920;45.306;20.448;2022-10-30T02:27:51;282.10;2278.40
57030;DHT22;42920;45.306;20.448;2022-10-30T02:30:17;282.10;2278.40
57030;DHT22;42920;45.306;20.448;2022-10-30T02:32:42;282.00;2278.40
57030;DHT22;42920;45.306;20.448;2022-10-30T02:35:08;282.10;2278.40
57030;DHT22;42920;45.306;20.448;2022-10-30T02:37:34;282.10;2278.40
57030;DHT22;42920;45.306;20.448;2022-10-30T02:40:04;282.00;2278.40
57030;DHT22;42920;45.306;20.448;2022-10-30T02:42:30;281.90;2278.40
57030;DHT22;42920;45.306;20.448;2022-10-30T02:44:55;281.80;2278.40
57030;DHT22;42920;45.306;20.448;2022-10-30T02:47:21;281.80;2278.40
57030;DHT22;42920;45.306;20.448;2022-10-30T02:49:47;281.70;2278.40
57030;DHT22;42920;45.306;20.448;2022-10-30T02:52:12;281.90;2278.40
57030;DHT22;42920;45.306;20.448;2022-10-30T02:54:38;282.00;2278.40
57030;DHT22;42920;45.306;20.448;2022-10-30T02:57:04;282.00;2278.40
57030;DHT22;42920;45.306;20.448;2022-10-30T02:59:29;282.10;2278.40
57030;DHT22;42920;45.306;20.448;2022-10-30T03:01:55;282.10;2278.40
57030;DHT22;42920;45.306;20.448;2022-10-30T03:04:21;282.10;2278.40
57030;DHT22;42920;45.306;20.448;2022-10-30T03:06:47;282.20;2278.40
57030;DHT22;42920;45.306;20.448;2022-10-30T03:09:13;282.20;2278.40
57030;DHT22;42920;45.306;20.448;2022-10-30T03:11:39;282.30;2278.40
57030;DHT22;42920;45.306;20.448;2022-10-30T03:14:04;282.20;1894.40
57030;DHT22;42920;45.306;20.448;2022-10-30T03:16:30;282.10;2278.40
57030;DHT22;42920;45.306;20.448;2022-10-30T03:18:58;282.00;2278.40
57030;DHT22;42920;45.306;20.448;2022-10-30T03:21:26;282.10;2278.40
57030;DHT22;42920;45.306;20.448;2022-10-30T03:23:53;282.20;2278.40
57030;DHT22;42920;45.306;20.448;2022-10-30T03:26:20;282.10;2278.40
57030;DHT22;42920;45.306;20.448;2022-10-30T03:28:46;282.30;2278.40
57030;DHT22;42920;45.306;20.448;2022-10-30T03:31:14;282.30;2252.80
57030;DHT22;42920;45.306;20.448;2022-10-30T03:33:41;282.40;2227.20
57030;DHT22;42920;45.306;20.448;2022-10-30T03:36:09;282.50;2278.40
57030;DHT22;42920;45.306;20.448;2022-10-30T03:38:35;282.50;2278.40
57030;DHT22;42920;45.306;20.448;2022-10-30T03:41:02;282.40;2278.40
57030;DHT22;42920;45.306;20.448;2022-10-30T03:43:28;282.20;2278.40
57030;DHT22;42920;45.306;20.448;2022-10-30T03:45:54;282.20;1945.60
57030;DHT22;42920;45.306;20.448;2022-10-30T03:48:23;282.10;1920.00
57030;DHT22;42920;45.306;20.448;2022-10-30T03:50:52;282.10;2278.40
57030;DHT22;42920;45.306;20.448;2022-10-30T03:53:17;282.10;1945.60
57030;DHT22;42920;45.306;20.448;2022-10-30T03:55:43;282.10;2278.40
57030;DHT22;42920;45.306;20.448;2022-10-30T03:58:09;282.00;2227.20
57030;DHT22;42920;45.306;20.448;2022-10-30T04:00:35;282.00;2278.40
57030;DHT22;42920;45.306;20.448;2022-10-30T04:03:04;282.10;2278.40
57030;DHT22;42920;45.306;20.448;2022-10-30T04:05:30;282.20;2278.40
57030;DHT22;42920;45.306;20.448;2022-10-30T04:07:58;282.10;2278.40
57030;DHT22;42920;45.306;20.448;2022-10-30T04:10:24;282.10;1971.20
57030;DHT22;42920;45.306;20.448;2022-10-30T04:12:50;282.00;2099.20
57030;DHT22;42920;45.306;20.448;2022-10-30T04:15:17;282.00;2278.40
57030;DHT22;42920;45.306;20.448;2022-10-30T04:17:50;282.00;2278.40
57030;DHT22;42920;45.306;20.448;2022-10-30T04:20:17;282.00;2278.40
57030;DHT22;42920;45.306;20.448;2022-10-30T04:22:43;282.00;2278.40
57030;DHT22;42920;45.306;20.448;2022-10-30T04:25:09;282.00;2278.40
57030;DHT22;42920;45.306;20.448;2022-10-30T04:27:39;282.20;2278.40
57030;DHT22;42920;45.306;20.448;2022-10-30T04:30:06;282.30;2278.40
57030;DHT22;42920;45.306;20.448;2022-10-30T04:32:31;282.10;2278.40
57030;DHT22;42920;45.306;20.448;2022-10-30T04:34:57;282.20;2278.40
57030;DHT22;42920;45.306;20.448;2022-10-30T04:37:23;282.30;2278.40
57030;DHT22;42920;45.306;20.448;2022-10-30T04:39:48;282.30;2278.40
57030;DHT22;42920;45.306;20.448;2022-10-30T04:42:15;282.30;2278.40
57030;DHT22;42920;45.306;20.448;2022-10-30T04:44:40;282.30;2278.40
57030;DHT22;42920;45.306;20.448;2022-10-30T04:47:06;282.30;2278.40
57030;DHT22;42920;45.306;20.448;2022-10-30T04:49:32;282.30;2278.40
57030;DHT22;42920;45.306;20.448;2022-10-30T04:51:58;282.40;2278.40
57030;DHT22;42920;45.306;20.448;2022-10-30T04:54:23;282.30;2278.40
57030;DHT22;42920;45.306;20.448;2022-10-30T04:56:49;282.30;2278.40
57030;DHT22;42920;45.306;20.448;2022-10-30T04:59:15;282.30;2278.40
57030;DHT22;42920;45.306;20.448;2022-10-30T05:01:40;282.30;2278.40
57030;DHT22;42920;45.306;20.448;2022-10-30T05:04:06;282.40;2278.40
57030;DHT22;42920;45.306;20.448;2022-10-30T05:06:32;282.40;2278.40
57030;DHT22;42920;45.306;20.448;2022-10-30T05:08:58;282.40;2201.60
57030;DHT22;42920;45.306;20.448;2022-10-30T05:11:24;282.30;2176.00
57030;DHT22;42920;45.306;20.448;2022-10-30T05:13:49;282.30;2278.40
57030;DHT22;42920;45.306;20.448;2022-10-30T05:16:15;282.30;2278.40
57030;DHT22;42920;45.306;20.448;2022-10-30T05:18:41;282.30;2278.40
57030;DHT22;42920;45.306;20.448;2022-10-30T05:21:06;282.30;2278.40
57030;DHT22;42920;45.306;20.448;2022-10-30T05:23:32;282.40;2278.40
57030;DHT22;42920;45.306;20.448;2022-10-30T05:26:01;282.30;2278.40
57030;DHT22;42920;45.306;20.448;2022-10-30T05:28:27;282.40;2278.40
57030;DHT22;42920;45.306;20.448;2022-10-30T05:30:53;282.50;2022.40
57030;DHT22;42920;45.306;20.448;2022-10-30T05:33:19;282.40;2278.40
57030;DHT22;42920;45.306;20.448;2022-10-30T05:35:45;282.30;1996.80
57030;DHT22;42920;45.306;20.448;2022-10-30T05:38:11;282.30;2073.60
57030;DHT22;42920;45.306;20.448;2022-10-30T05:40:37;282.40;2099.20
57030;DHT22;42920;45.306;20.448;2022-10-30T05:43:03;282.40;2278.40
57030;DHT22;42920;45.306;20.448;2022-10-30T05:45:30;282.30;2278.40
57030;DHT22;42920;45.306;20.448;2022-10-30T05:48:03;282.20;2278.40
57030;DHT22;42920;45.306;20.448;2022-10-30T05:50:29;282.10;2278.40
57030;DHT22;42920;45.306;20.448;2022-10-30T05:52:59;282.00;2227.20
57030;DHT22;42920;45.306;20.448;2022-10-30T05:55:26;282.00;2278.40
57030;DHT22;42920;45.306;20.448;2022-10-30T06:00:21;282.10;2278.40
57030;DHT22;42920;45.306;20.448;2022-10-30T06:02:47;282.00;2278.40
57030;DHT22;42920;45.306;20.448;2022-10-30T06:05:13;282.00;2278.40
57030;DHT22;42920;45.306;20.448;2022-10-30T06:07:38;282.10;2278.40
57030;DHT22;42920;45.306;20.448;2022-10-30T06:10:05;282.10;2278.40
57030;DHT22;42920;45.306;20.448;2022-10-30T06:12:30;282.10;2278.40
57030;DHT22;42920;45.306;20.448;2022-10-30T06:14:56;282.20;2278.40
57030;DHT22;42920;45.306;20.448;2022-10-30T06:17:22;282.30;2022.40
57030;DHT22;42920;45.306;20.448;2022-10-30T06:19:48;282.30;2278.40
57030;DHT22;42920;45.306;20.448;2022-10-30T06:22:13;282.30;2278.40
57030;DHT22;42920;45.306;20.448;2022-10-30T06:24:39;282.40;2278.40
57030;DHT22;42920;45.306;20.448;2022-10-30T06:27:05;282.30;2278.40
57030;DHT22;42920;45.306;20.448;2022-10-30T06:29:30;282.40;2278.40
57030;DHT22;42920;45.306;20.448;2022-10-30T06:31:56;282.40;2278.40
57030;DHT22;42920;45.306;20.448;2022-10-30T06:34:22;282.40;2278.40
57030;DHT22;42920;45.306;20.448;2022-10-30T06:36:48;282.50;2278.40
57030;DHT22;42920;45.306;20.448;2022-10-30T06:39:14;282.50;2278.40
57030;DHT22;42920;45.306;20.448;2022-10-30T06:41:39;282.50;2278.40
57030;DHT22;42920;45.306;20.448;2022-10-30T06:44:05;282.50;2278.40
57030;DHT22;42920;45.306;20.448;2022-10-30T06:46:31;307.20;2304.00
57030;DHT22;42920;45.306;20.448;2022-10-30T06:48:56;307.40;2304.00
57030;DHT22;42920;45.306;20.448;2022-10-30T06:51:22;307.40;2304.00
57030;DHT22;42920;45.306;20.448;2022-10-30T06:53:48;282.50;2278.40
57030;DHT22;42920;45.306;20.448;2022-10-30T06:56:14;282.50;2278.40
57030;DHT22;42920;45.306;20.448;2022-10-30T06:58:39;307.30;2304.00
57030;DHT22;42920;45.306;20.448;2022-10-30T07:01:05;307.30;2304.00
57030;DHT22;42920;45.306;20.448;2022-10-30T07:03:32;307.40;2304.00
57030;DHT22;42920;45.306;20.448;2022-10-30T07:05:57;307.50;2304.00
57030;DHT22;42920;45.306;20.448;2022-10-30T07:08:23;307.60;2304.00
57030;DHT22;42920;45.306;20.448;2022-10-30T07:10:49;307.60;2304.00
57030;DHT22;42920;45.306;20.448;2022-10-30T07:13:16;307.60;2304.00
57030;DHT22;42920;45.306;20.448;2022-10-30T07:15:42;307.70;2304.00
57030;DHT22;42920;45.306;20.448;2022-10-30T07:18:09;307.80;2304.00
57030;DHT22;42920;45.306;20.448;2022-10-30T07:20:35;307.80;2304.00
57030;DHT22;42920;45.306;20.448;2022-10-30T07:23:01;307.80;2304.00
57030;DHT22;42920;45.306;20.448;2022-10-30T07:25:28;307.80;2304.00
57030;DHT22;42920;45.306;20.448;2022-10-30T07:27:55;307.90;2304.00
57030;DHT22;42920;45.306;20.448;2022-10-30T07:30:23;308.10;2304.00
57030;DHT22;42920;45.306;20.448;2022-10-30T07:33:04;332.80;2329.60
57030;DHT22;42920;45.306;20.448;2022-10-30T07:35:33;332.80;2329.60
57030;DHT22;42920;45.306;20.448;2022-10-30T07:38:08;332.80;2329.60
57030;DHT22;42920;45.306;20.448;2022-10-30T07:40:35;332.90;2329.60
57030;DHT22;42920;45.306;20.448;2022-10-30T07:43:02;332.90;2329.60
57030;DHT22;42920;45.306;20.448;2022-10-30T07:45:28;332.90;2329.60
57030;DHT22;42920;45.306;20.448;2022-10-30T07:47:54;332.90;2329.60
57030;DHT22;42920;45.306;20.448;2022-10-30T07:50:20;333.10;2329.60
57030;DHT22;42920;45.306;20.448;2022-10-30T07:52:46;333.20;2329.60
57030;DHT22;42920;45.306;20.448;2022-10-30T07:55:12;333.10;2329.60
57030;DHT22;42920;45.306;20.448;2022-10-30T07:57:41;333.20;2329.60
57030;DHT22;42920;45.306;20.448;2022-10-30T08:00:10;333.10;2329.60
57030;DHT22;42920;45.306;20.448;2022-10-30T08:02:37;333.10;2329.60
57030;DHT22;42920;45.306;20.448;2022-10-30T08:05:04;333.10;2329.60
57030;DHT22;42920;45.306;20.448;2022-10-30T08:07:31;333.20;2329.60
57030;DHT22;42920;45.306;20.448;2022-10-30T08:09:58;333.30;2329.60
57030;DHT22;42920;45.306;20.448;2022-10-30T08:12:24;333.20;2329.60
57030;DHT22;42920;45.306;20.448;2022-10-30T08:14:51;333.30;2329.60
57030;DHT22;42920;45.306;20.448;2022-10-30T08:17:17;333.40;2329.60
57030;DHT22;42920;45.306;20.448;2022-10-30T08:19:43;333.50;2329.60
57030;DHT22;42920;45.306;20.448;2022-10-30T08:22:12;333.60;2329.60
57030;DHT22;42920;45.306;20.448;2022-10-30T08:24:38;333.60;2329.60
57030;DHT22;42920;45.306;20.448;2022-10-30T08:27:04;333.70;2329.60
57030;DHT22;42920;45.306;20.448;2022-10-30T08:29:31;333.70;2329.60
57030;DHT22;42920;45.306;20.448;2022-10-30T08:31:57;358.40;2329.60
57030;DHT22;42920;45.306;20.448;2022-10-30T08:34:22;358.60;2329.60
57030;DHT22;42920;45.306;20.448;2022-10-30T08:36:49;358.60;2329.60
57030;DHT22;42920;45.306;20.448;2022-10-30T08:39:17;358.60;2329.60
57030;DHT22;42920;45.306;20.448;2022-10-30T08:41:44;358.60;2329.60
57030;DHT22;42920;45.306;20.448;2022-10-30T08:44:10;358.70;2329.60
57030;DHT22;42920;45.306;20.448;2022-10-30T08:46:35;358.70;2329.60
57030;DHT22;42920;45.306;20.448;2022-10-30T08:49:01;358.80;2329.60
57030;DHT22;42920;45.306;20.448;2022-10-30T08:51:27;358.90;2329.60
57030;DHT22;42920;45.306;20.448;2022-10-30T08:53:52;358.90;2329.60
57030;DHT22;42920;45.306;20.448;2022-10-30T08:56:18;358.90;2329.60
57030;DHT22;42920;45.306;20.448;2022-10-30T08:58:44;358.90;2329.60
57030;DHT22;42920;45.306;20.448;2022-10-30T09:01:09;359.00;2329.60
57030;DHT22;42920;45.306;20.448;2022-10-30T09:03:35;359.00;2329.60
57030;DHT22;42920;45.306;20.448;2022-10-30T09:06:03;359.10;2329.60
57030;DHT22;42920;45.306;20.448;2022-10-30T09:08:29;359.10;2329.60
57030;DHT22;42920;45.306;20.448;2022-10-30T09:10:57;359.10;2329.60
57030;DHT22;42920;45.306;20.448;2022-10-30T09:13:24;359.20;2329.60
57030;DHT22;42920;45.306;20.448;2022-10-30T09:15:50;359.30;2329.60
57030;DHT22;42920;45.306;20.448;2022-10-30T09:18:16;384.00;2329.60
57030;DHT22;42920;45.306;20.448;2022-10-30T09:20:42;384.00;2329.60
57030;DHT22;42920;45.306;20.448;2022-10-30T09:23:08;384.10;2329.60
57030;DHT22;42920;45.306;20.448;2022-10-30T09:25:34;384.20;2329.60
57030;DHT22;42920;45.306;20.448;2022-10-30T09:27:59;384.40;2329.60
57030;DHT22;42920;45.306;20.448;2022-10-30T09:30:25;384.70;2329.60
57030;DHT22;42920;45.306;20.448;2022-10-30T09:32:58;384.90;2329.60
57030;DHT22;42920;45.306;20.448;2022-10-30T09:35:24;409.70;2355.20
57030;DHT22;42920;45.306;20.448;2022-10-30T09:37:50;410.00;2355.20
57030;DHT22;42920;45.306;20.448;2022-10-30T09:46:23;435.20;2355.20
57030;DHT22;42920;45.306;20.448;2022-10-30T10:02:51;461.20;2380.80
57030;DHT22;42920;45.306;20.448;2022-10-30T10:07:50;461.40;2380.80
57030;DHT22;42920;45.306;20.448;2022-10-30T10:12:49;486.50;2380.80
57030;DHT22;42920;45.306;20.448;2022-10-30T10:15:27;486.70;2380.80
57030;DHT22;42920;45.306;20.448;2022-10-30T10:17:54;486.70;2380.80
57030;DHT22;42920;45.306;20.448;2022-10-30T10:20:44;486.80;2380.80
57030;DHT22;42920;45.306;20.448;2022-10-30T10:23:17;486.90;2380.80
57030;DHT22;42920;45.306;20.448;2022-10-30T10:25:46;487.30;2380.80
57030;DHT22;42920;45.306;20.448;2022-10-30T10:31:23;512.10;2380.80
57030;DHT22;42920;45.306;20.448;2022-10-30T10:48:21;537.90;2406.40
57030;DHT22;42920;45.306;20.448;2022-10-30T10:56:10;538.10;2406.40
57030;DHT22;42920;45.306;20.448;2022-10-30T10:58:52;538.10;2406.40
57030;DHT22;42920;45.306;20.448;2022-10-30T11:01:35;538.20;2406.40
57030;DHT22;42920;45.306;20.448;2022-10-30T11:04:13;538.40;2406.40
57030;DHT22;42920;45.306;20.448;2022-10-30T11:06:45;538.40;2406.40
57030;DHT22;42920;45.306;20.448;2022-10-30T11:09:14;538.40;2406.40
57030;DHT22;42920;45.306;20.448;2022-10-30T11:11:42;538.50;2406.40
57030;DHT22;42920;45.306;20.448;2022-10-30T11:14:22;538.50;2406.40
57030;DHT22;42920;45.306;20.448;2022-10-30T11:19:48;563.30;2432.00
57030;DHT22;42920;45.306;20.448;2022-10-30T11:22:24;563.30;2432.00
57030;DHT22;42920;45.306;20.448;2022-10-30T11:24:52;563.30;2432.00
57030;DHT22;42920;45.306;20.448;2022-10-30T11:27:25;563.20;2432.00
57030;DHT22;42920;45.306;20.448;2022-10-30T11:30:04;563.30;2432.00
57030;DHT22;42920;45.306;20.448;2022-10-30T11:32:32;563.30;2432.00
57030;DHT22;42920;45.306;20.448;2022-10-30T11:37:37;563.40;2432.00
57030;DHT22;42920;45.306;20.448;2022-10-30T11:42:32;563.60;2432.00
57030;DHT22;42920;45.306;20.448;2022-10-30T11:44:58;563.50;2432.00
57030;DHT22;42920;45.306;20.448;2022-10-30T11:47:36;538.50;2406.40
57030;DHT22;42920;45.306;20.448;2022-10-30T11:50:14;538.50;2406.40
57030;DHT22;42920;45.306;20.448;2022-10-30T11:52:41;538.50;2406.40
57030;DHT22;42920;45.306;20.448;2022-10-30T11:55:34;538.50;2406.40
57030;DHT22;42920;45.306;20.448;2022-10-30T11:58:05;563.20;2432.00
57030;DHT22;42920;45.306;20.448;2022-10-30T12:00:33;563.20;2432.00
57030;DHT22;42920;45.306;20.448;2022-10-30T12:03:01;538.50;2406.40
57030;DHT22;42920;45.306;20.448;2022-10-30T12:05:36;538.50;2406.40
57030;DHT22;42920;45.306;20.448;2022-10-30T12:10:43;538.50;2406.40
57030;DHT22;42920;45.306;20.448;2022-10-30T12:13:15;538.50;2406.40
57030;DHT22;42920;45.306;20.448;2022-10-30T12:15:41;538.50;2406.40
57030;DHT22;42920;45.306;20.448;2022-10-30T12:18:20;538.30;2406.40
57030;DHT22;42920;45.306;20.448;2022-10-30T12:20:52;538.30;2406.40
57030;DHT22;42920;45.306;20.448;2022-10-30T12:23:21;538.40;2406.40
57030;DHT22;42920;45.306;20.448;2022-10-30T12:25:54;538.50;2406.40
57030;DHT22;42920;45.306;20.448;2022-10-30T12:28:28;538.50;2406.40
57030;DHT22;42920;45.306;20.448;2022-10-30T12:33:37;538.30;2406.40
57030;DHT22;42920;45.306;20.448;2022-10-30T12:36:09;538.20;2406.40
57030;DHT22;42920;45.306;20.448;2022-10-30T12:38:46;538.00;2406.40
57030;DHT22;42920;45.306;20.448;2022-10-30T12:41:30;538.00;2406.40
57030;DHT22;42920;45.306;20.448;2022-10-30T12:52:16;537.80;2406.40
57030;DHT22;42920;45.306;20.448;2022-10-30T12:55:03;537.80;2406.40
57030;DHT22;42920;45.306;20.448;2022-10-30T12:57:35;537.80;2406.40
57030;DHT22;42920;45.306;20.448;2022-10-30T13:00:09;537.70;2406.40
57030;DHT22;42920;45.306;20.448;2022-10-30T13:05:27;512.90;2380.80
57030;DHT22;42920;45.306;20.448;2022-10-30T13:10:39;512.70;2380.80
57030;DHT22;42920;45.306;20.448;2022-10-30T13:13:16;512.70;2380.80
57030;DHT22;42920;45.306;20.448;2022-10-30T13:15:49;512.70;2380.80
57030;DHT22;42920;45.306;20.448;2022-10-30T13:18:18;512.50;2380.80
57030;DHT22;42920;45.306;20.448;2022-10-30T13:21:00;512.50;2380.80
57030;DHT22;42920;45.306;20.448;2022-10-30T13:26:36;512.30;2380.80
57030;DHT22;42920;45.306;20.448;2022-10-30T13:29:21;512.30;2380.80
57030;DHT22;42920;45.306;20.448;2022-10-30T13:51:42;487.30;2380.80
57030;DHT22;42920;45.306;20.448;2022-10-30T13:54:39;487.20;2380.80
57030;DHT22;42920;45.306;20.448;2022-10-30T14:05:49;487.00;2380.80
57030;DHT22;42920;45.306;20.448;2022-10-30T14:11:09;486.80;2380.80
57030;DHT22;42920;45.306;20.448;2022-10-30T14:13:55;486.80;2380.80
57030;DHT22;42920;45.306;20.448;2022-10-30T14:26:56;486.40;2380.80
57030;DHT22;42920;45.306;20.448;2022-10-30T14:34:43;461.60;2380.80
57030;DHT22;42920;45.306;20.448;2022-10-30T14:37:10;461.60;2380.80
57030;DHT22;42920;45.306;20.448;2022-10-30T14:39:41;461.50;2380.80
57030;DHT22;42920;45.306;20.448;2022-10-30T14:42:23;461.40;2380.80
57030;DHT22;42920;45.306;20.448;2022-10-30T14:48:08;461.30;2380.80
57030;DHT22;42920;45.306;20.448;2022-10-30T14:58:39;461.10;2380.80
57030;DHT22;42920;45.306;20.448;2022-10-30T15:03:48;460.80;2380.80
57030;DHT22;42920;45.306;20.448;2022-10-30T15:06:25;460.80;2380.80
57030;DHT22;42920;45.306;20.448;2022-10-30T15:15:04;436.00;2355.20
57030;DHT22;42920;45.306;20.448;2022-10-30T15:17:37;436.00;2355.20
57030;DHT22;42920;45.306;20.448;2022-10-30T15:20:07;435.90;2355.20
57030;DHT22;42920;45.306;20.448;2022-10-30T15:22:34;435.80;2355.20
57030;DHT22;42920;45.306;20.448;2022-10-30T15:25:01;435.80;2355.20
57030;DHT22;42920;45.306;20.448;2022-10-30T15:27:28;435.70;2355.20
57030;DHT22;42920;45.306;20.448;2022-10-30T15:30:01;435.60;2355.20
57030;DHT22;42920;45.306;20.448;2022-10-30T15:32:28;435.60;2355.20
57030;DHT22;42920;45.306;20.448;2022-10-30T15:34:59;435.60;2355.20
57030;DHT22;42920;45.306;20.448;2022-10-30T15:37:25;435.50;2355.20
57030;DHT22;42920;45.306;20.448;2022-10-30T15:40:13;435.40;2355.20
57030;DHT22;42920;45.306;20.448;2022-10-30T15:42:41;435.30;2355.20
57030;DHT22;42920;45.306;20.448;2022-10-30T15:45:24;435.30;2355.20
57030;DHT22;42920;45.306;20.448;2022-10-30T15:51:02;410.50;2355.20
57030;DHT22;42920;45.306;20.448;2022-10-30T15:53:47;410.40;2355.20
57030;DHT22;42920;45.306;20.448;2022-10-30T15:56:27;410.30;2355.20
57030;DHT22;42920;45.306;20.448;2022-10-30T15:59:04;410.30;2355.20
57030;DHT22;42920;45.306;20.448;2022-10-30T16:01:36;410.20;2355.20
57030;DHT22;42920;45.306;20.448;2022-10-30T16:04:30;410.20;2355.20
57030;DHT22;42920;45.306;20.448;2022-10-30T16:06:59;410.20;2355.20
57030;DHT22;42920;45.306;20.448;2022-10-30T16:09:26;410.20;2355.20
57030;DHT22;42920;45.306;20.448;2022-10-30T16:11:58;410.00;2355.20
57030;DHT22;42920;45.306;20.448;2022-10-30T16:14:26;410.00;2355.20
57030;DHT22;42920;45.306;20.448;2022-10-30T16:16:53;409.90;2355.20
57030;DHT22;42920;45.306;20.448;2022-10-30T16:19:26;409.90;2355.20
57030;DHT22;42920;45.306;20.448;2022-10-30T16:21:53;409.80;2355.20
57030;DHT22;42920;45.306;20.448;2022-10-30T16:24:41;409.90;2355.20
57030;DHT22;42920;45.306;20.448;2022-10-30T16:27:16;409.80;2355.20
57030;DHT22;42920;45.306;20.448;2022-10-30T16:29:47;409.70;2355.20
57030;DHT22;42920;45.306;20.448;2022-10-30T16:32:15;409.70;2355.20
57030;DHT22;42920;45.306;20.448;2022-10-30T16:34:43;409.70;2355.20
57030;DHT22;42920;45.306;20.448;2022-10-30T16:37:20;409.70;2355.20
57030;DHT22;42920;45.306;20.448;2022-10-30T16:39:49;409.70;2355.20
57030;DHT22;42920;45.306;20.448;2022-10-30T16:42:21;409.60;2355.20
57030;DHT22;42920;45.306;20.448;2022-10-30T16:44:47;384.90;2329.60
57030;DHT22;42920;45.306;20.448;2022-10-30T16:49:54;384.80;2329.60
57030;DHT22;42920;45.306;20.448;2022-10-30T16:52:28;384.80;2329.60
57030;DHT22;42920;45.306;20.448;2022-10-30T16:55:07;384.70;2329.60
57030;DHT22;42920;45.306;20.448;2022-10-30T16:57:40;384.60;2329.60
57030;DHT22;42920;45.306;20.448;2022-10-30T17:00:18;384.50;2329.60
57030;DHT22;42920;45.306;20.448;2022-10-30T17:02:46;384.40;2329.60
57030;DHT22;42920;45.306;20.448;2022-10-30T17:05:31;384.40;2329.60
57030;DHT22;42920;45.306;20.448;2022-10-30T17:08:03;384.30;2329.60
57030;DHT22;42920;45.306;20.448;2022-10-30T17:10:37;384.30;2329.60
57030;DHT22;42920;45.306;20.448;2022-10-30T17:13:35;384.20;2329.60
57030;DHT22;42920;45.306;20.448;2022-10-30T17:16:24;384.20;2329.60
57030;DHT22;42920;45.306;20.448;2022-10-30T17:18:53;384.10;2329.60
57030;DHT22;42920;45.306;20.448;2022-10-30T17:21:22;384.10;2329.60
57030;DHT22;42920;45.306;20.448;2022-10-30T17:23:51;384.20;2329.60
57030;DHT22;42920;45.306;20.448;2022-10-30T17:26:18;384.10;2329.60
57030;DHT22;42920;45.306;20.448;2022-10-30T17:28:45;384.10;2329.60
57030;DHT22;42920;45.306;20.448;2022-10-30T17:36:31;384.10;2329.60
57030;DHT22;42920;45.306;20.448;2022-10-30T17:38:56;384.10;2329.60
57030;DHT22;42920;45.306;20.448;2022-10-30T17:41:22;384.10;2329.60
57030;DHT22;42920;45.306;20.448;2022-10-30T17:43:52;384.00;2329.60